createdAt,value
2022-08-14T00:02:22.987Z,100189.84
2022-08-14T00:07:27.361Z,100195.34
2022-08-14T00:12:48.065Z,100201.00
2022-08-14T00:17:55.992Z,100188.81
2022-08-14T00:23:08.312Z,100184.56
2022-08-14T00:28:19.092Z,100186.75
2022-08-14T00:33:21.931Z,100176.47
2022-08-14T00:38:44.769Z,100164.28
2022-08-14T00:43:50.561Z,100167.97
2022-08-14T00:48:53.448Z,100175.66
2022-08-14T00:53:57.066Z,100160.31
2022-08-14T00:59:01.248Z,100162.97
2022-08-14T01:04:05.734Z,100167.97
2022-08-14T01:09:08.996Z,100160.97
2022-08-14T01:14:25.576Z,100159.09
2022-08-14T01:19:49.351Z,100150.00
2022-08-14T01:24:57.340Z,100145.84
2022-08-14T01:30:03.955Z,100148.03
2022-08-14T01:35:17.904Z,100136.22
2022-08-14T01:40:40.922Z,100131.56
2022-08-14T01:45:48.733Z,100135.22
2022-08-14T01:50:52.341Z,100135.00
2022-08-14T01:56:00.021Z,100125.66
2022-08-14T02:01:05.154Z,100115.53
2022-08-14T02:06:32.985Z,100113.78
2022-08-14T02:11:37.261Z,100104.94
2022-08-14T02:16:42.142Z,100089.97
2022-08-14T02:21:50.299Z,100094.44
2022-08-14T02:28:19.282Z,100091.50
2022-08-14T02:32:19.906Z,100089.38
2022-08-14T02:37:45.686Z,100089.03
2022-08-14T02:42:55.257Z,100094.06
2022-08-14T02:48:00.839Z,100083.41
2022-08-14T02:53:06.128Z,100075.81
2022-08-14T02:58:13.000Z,100068.41
2022-08-14T03:03:32.055Z,100070.09
2022-08-14T03:08:46.126Z,100066.88
2022-08-14T03:13:52.538Z,100051.84
2022-08-14T03:19:00.712Z,100049.19
2022-08-14T03:24:21.489Z,100051.47
2022-08-14T03:29:29.382Z,100047.91
2022-08-14T03:34:48.063Z,100040.13
2022-08-14T03:39:55.320Z,100048.47
2022-08-14T03:45:25.185Z,100047.50
2022-08-14T03:50:30.876Z,100022.25
2022-08-14T03:55:34.110Z,100015.97
2022-08-14T04:00:44.692Z,100015.63
2022-08-14T04:05:48.923Z,100008.44
2022-08-14T04:10:52.152Z,100004.47
2022-08-14T04:16:02.433Z,100009.53
2022-08-14T04:21:08.284Z,100009.19
2022-08-14T04:26:27.339Z,99990.34
2022-08-14T04:33:10.696Z,99984.31
2022-08-14T04:37:24.979Z,99978.25
2022-08-14T04:42:51.247Z,99986.81
2022-08-14T04:48:13.947Z,99992.78
2022-08-14T04:53:42.929Z,99997.06
2022-08-14T04:58:48.048Z,99992.41
2022-08-14T05:03:52.909Z,99992.03
2022-08-14T05:09:00.357Z,99978.09
2022-08-14T05:14:43.114Z,99982.72
2022-08-14T05:19:29.315Z,99986.47
2022-08-14T05:24:32.529Z,99990.09
2022-08-14T05:29:36.032Z,100000.69
2022-08-14T05:34:40.333Z,99994.94
2022-08-14T05:39:48.638Z,100007.53
2022-08-14T05:44:54.219Z,100002.41
2022-08-14T05:50:00.028Z,99990.63
2022-08-14T05:55:03.791Z,99982.53
2022-08-14T06:00:07.615Z,99987.03
2022-08-14T06:05:15.505Z,99989.00
2022-08-14T06:10:19.069Z,99974.00
2022-08-14T06:15:25.171Z,99975.31
2022-08-14T06:20:34.339Z,99970.31
2022-08-14T06:25:37.673Z,99970.63
2022-08-14T06:30:45.939Z,99980.28
2022-08-14T06:35:51.297Z,99971.28
2022-08-14T06:40:54.962Z,99972.31
2022-08-14T06:45:57.972Z,99976.28
2022-08-14T06:51:04.879Z,99963.78
2022-08-14T06:56:08.736Z,99972.34
2022-08-14T07:01:29.310Z,99975.72
2022-08-14T07:06:46.367Z,99974.19
2022-08-14T07:11:50.985Z,99982.91
2022-08-14T07:16:53.875Z,99980.50
2022-08-14T07:21:58.106Z,99969.56
2022-08-14T07:27:04.724Z,99983.19
2022-08-14T07:32:11.190Z,99975.72
2022-08-14T07:37:15.528Z,99973.28
2022-08-14T07:42:20.076Z,99958.16
2022-08-14T07:47:26.009Z,99960.28
2022-08-14T07:52:32.076Z,99941.31
2022-08-14T07:57:35.817Z,99939.41
2022-08-14T08:02:41.907Z,99932.78
2022-08-14T08:07:48.069Z,99931.75
2022-08-14T08:12:53.336Z,99921.44
2022-08-14T08:18:01.584Z,99933.25
2022-08-14T08:23:10.116Z,99939.09
2022-08-14T08:28:26.569Z,99933.25
2022-08-14T08:33:37.023Z,99924.84
2022-08-14T08:39:16.411Z,99917.75
2022-08-14T08:44:16.963Z,99918.84
2022-08-14T08:49:20.385Z,99916.97
2022-08-14T08:54:26.559Z,99907.31
2022-08-14T08:59:34.402Z,99890.03
2022-08-14T09:04:45.593Z,99868.75
2022-08-14T09:09:59.954Z,99858.41
2022-08-14T09:15:09.043Z,99860.84
2022-08-14T09:20:25.881Z,99845.28
2022-08-14T09:26:00.721Z,99847.97
2022-08-14T09:30:58.391Z,99843.00
2022-08-14T09:36:21.626Z,99846.22
2022-08-14T09:42:21.853Z,99848.50
2022-08-14T09:47:14.590Z,99827.72
2022-08-14T09:52:32.969Z,99832.69
2022-08-14T09:57:38.612Z,99826.56
2022-08-14T10:02:53.562Z,99823.50
2022-08-14T10:07:59.046Z,99802.00
2022-08-14T10:13:07.675Z,99796.19
2022-08-14T10:18:17.203Z,99793.50
2022-08-14T10:23:24.597Z,99792.94
2022-08-14T10:29:18.424Z,99788.22
2022-08-14T10:34:13.158Z,99781.00
2022-08-14T10:39:20.437Z,99769.34
2022-08-14T10:44:29.749Z,99772.41
2022-08-14T10:49:35.560Z,99754.03
2022-08-14T10:54:40.446Z,99757.06
2022-08-14T10:59:49.902Z,99746.00
2022-08-14T11:05:11.352Z,99737.94
2022-08-14T11:10:16.592Z,99729.22
2022-08-14T11:15:23.760Z,99722.50
2022-08-14T11:20:29.745Z,99709.13
2022-08-14T11:25:43.578Z,99722.66
2022-08-14T11:30:53.768Z,99711.66
2022-08-14T11:36:00.395Z,99723.72
2022-08-14T11:41:07.379Z,99705.66
2022-08-14T11:46:17.744Z,99703.56
2022-08-14T11:51:36.198Z,99698.69
2022-08-14T11:56:56.937Z,99701.72
2022-08-14T12:03:03.444Z,99688.44
2022-08-14T12:07:49.915Z,99670.38
2022-08-14T12:12:59.135Z,99651.88
2022-08-14T12:18:11.339Z,99648.31
2022-08-14T12:23:24.872Z,99655.91
2022-08-14T12:28:33.773Z,99650.09
2022-08-14T12:34:10.326Z,99649.56
2022-08-14T12:39:19.500Z,99640.91
2022-08-14T12:44:32.266Z,99638.56
2022-08-14T12:49:36.879Z,99611.19
2022-08-14T12:54:50.509Z,99602.09
2022-08-14T13:00:22.616Z,99582.34
2022-08-14T13:05:36.108Z,99588.03
2022-08-14T13:10:47.854Z,99576.09
2022-08-14T13:15:57.737Z,99568.53
2022-08-14T13:21:05.548Z,99576.56
2022-08-14T13:26:09.014Z,99589.19
2022-08-14T13:31:16.847Z,99574.25
2022-08-14T13:36:24.002Z,99569.13
2022-08-14T13:41:47.691Z,99555.34
2022-08-14T13:47:00.154Z,99549.66
2022-08-14T13:52:48.125Z,99551.13
2022-08-14T13:57:49.451Z,99531.16
2022-08-14T14:03:01.227Z,99522.75
2022-08-14T14:08:18.479Z,99508.63
2022-08-14T14:13:26.517Z,99506.19
2022-08-14T14:18:34.744Z,99498.84
2022-08-14T14:23:39.927Z,99502.06
2022-08-14T14:28:45.294Z,99490.59
2022-08-14T14:33:50.753Z,99478.47
2022-08-14T14:38:57.185Z,99473.22
2022-08-14T14:44:01.274Z,99464.03
2022-08-14T14:49:14.383Z,99461.13
2022-08-14T14:54:31.592Z,99461.03
2022-08-14T14:59:37.286Z,99440.53
2022-08-14T15:04:43.459Z,99432.78
2022-08-14T15:09:49.387Z,99414.16
2022-08-14T15:14:58.136Z,99425.91
2022-08-14T15:20:17.263Z,99428.59
2022-08-14T15:25:39.336Z,99439.16
2022-08-14T15:30:45.794Z,99426.34
2022-08-14T15:35:54.300Z,99413.72
2022-08-14T15:41:08.547Z,99422.91
2022-08-14T15:46:25.298Z,99422.38
2022-08-14T15:51:35.514Z,99417.72
2022-08-14T15:56:46.725Z,99409.53
2022-08-14T16:01:54.721Z,99398.69
2022-08-14T16:06:58.129Z,99406.22
2022-08-14T16:12:02.433Z,99406.25
2022-08-14T16:17:07.407Z,99404.72
2022-08-14T16:22:57.526Z,99399.47
2022-08-14T16:27:39.147Z,99391.47
2022-08-14T16:32:55.340Z,99388.72
2022-08-14T16:37:59.865Z,99392.59
2022-08-14T16:43:26.012Z,99388.72
2022-08-14T16:48:55.192Z,99382.81
2022-08-14T16:53:54.594Z,99375.69
2022-08-14T16:59:12.257Z,99371.09
2022-08-14T17:04:24.677Z,99368.31
2022-08-14T17:09:31.965Z,99364.25
2022-08-14T17:14:56.254Z,99367.03
2022-08-14T17:20:08.856Z,99362.41
2022-08-14T17:25:30.011Z,99352.34
2022-08-14T17:30:49.971Z,99350.72
2022-08-14T17:36:10.430Z,99338.00
2022-08-14T17:41:27.323Z,99347.16
2022-08-14T17:46:43.854Z,99334.34
2022-08-14T17:52:03.784Z,99343.81
2022-08-14T17:57:14.016Z,99338.63
2022-08-14T18:02:31.277Z,99349.91
2022-08-14T18:07:59.395Z,99343.38
2022-08-14T18:13:10.815Z,99347.25
2022-08-14T18:18:16.140Z,99343.69
2022-08-14T18:23:21.495Z,99342.84
2022-08-14T18:28:51.700Z,99348.88
2022-08-14T18:33:57.137Z,99353.81
2022-08-14T18:39:29.541Z,99357.59
2022-08-14T18:45:12.995Z,99350.34
2022-08-14T18:50:27.935Z,99356.88
2022-08-14T18:55:52.864Z,99359.78
2022-08-14T19:00:59.309Z,99355.59
2022-08-14T19:06:05.530Z,99356.38
2022-08-14T19:11:51.626Z,99350.25
2022-08-14T19:16:54.528Z,99352.09
2022-08-14T19:21:58.862Z,99348.19
2022-08-14T19:27:23.745Z,99344.69
2022-08-14T19:32:41.003Z,99347.94
2022-08-14T19:37:48.467Z,99347.03
2022-08-14T19:42:58.435Z,99340.00
2022-08-14T19:48:02.981Z,99339.28
2022-08-14T19:53:11.115Z,99341.16
2022-08-14T19:58:14.798Z,99340.56
2022-08-14T20:03:19.018Z,99342.44
2022-08-14T20:09:06.435Z,99343.19
2022-08-14T20:13:57.928Z,99348.59
2022-08-14T20:19:13.914Z,99346.22
2022-08-14T20:24:30.743Z,99338.91
2022-08-14T20:29:37.975Z,99345.72
2022-08-14T20:34:51.063Z,99347.81
2022-08-14T20:39:56.005Z,99341.25
2022-08-14T20:45:21.374Z,99347.53
2022-08-14T20:50:29.577Z,99349.38
2022-08-14T20:55:41.791Z,99342.47
2022-08-14T21:00:51.687Z,99335.28
2022-08-14T21:05:58.876Z,99338.34
2022-08-14T21:11:02.700Z,99330.88
2022-08-14T21:16:34.256Z,99332.97
2022-08-14T21:21:41.299Z,99333.66
2022-08-14T21:26:52.567Z,99327.22
2022-08-14T21:32:20.511Z,99324.91
2022-08-14T21:37:25.280Z,99330.25
2022-08-14T21:42:32.745Z,99322.41
2022-08-14T21:47:38.866Z,99326.59
2022-08-14T21:52:50.715Z,99329.69
2022-08-14T21:58:52.203Z,99329.50
2022-08-14T22:03:26.329Z,99338.88
2022-08-14T22:08:39.822Z,99328.94
2022-08-14T22:13:49.131Z,99324.88
2022-08-14T22:18:52.546Z,99321.78
2022-08-14T22:24:01.544Z,99323.09
2022-08-14T22:29:15.485Z,99311.28
2022-08-14T22:34:20.316Z,99298.06
2022-08-14T22:40:54.604Z,99304.13
2022-08-14T22:44:50.482Z,99302.94
2022-08-14T22:50:29.411Z,99298.16
2022-08-14T22:55:18.257Z,99294.06
2022-08-14T23:00:25.172Z,99290.94
2022-08-14T23:05:40.169Z,99282.91
2022-08-14T23:10:57.174Z,99293.19
2022-08-14T23:16:00.053Z,99285.09
2022-08-14T23:21:02.853Z,99288.91
2022-08-14T23:26:48.326Z,99305.53
2022-08-14T23:31:35.572Z,99291.97
2022-08-14T23:36:54.845Z,99289.94
2022-08-14T23:42:02.322Z,99296.38
2022-08-14T23:47:25.420Z,99284.69
2022-08-14T23:52:50.427Z,99284.44
2022-08-14T23:57:57.990Z,99272.22
